createdAt,value
2022-10-21T00:00:13.339Z,993.10
2022-10-21T00:01:13.446Z,993.08
2022-10-21T00:02:13.963Z,993.07
2022-10-21T00:03:13.956Z,993.11
2022-10-21T00:04:12.781Z,993.07
2022-10-21T00:05:13.807Z,993.00
2022-10-21T00:06:13.635Z,993.04
2022-10-21T00:07:13.519Z,993.07
2022-10-21T00:08:13.419Z,993.07
2022-10-21T00:09:13.965Z,993.06
2022-10-21T00:10:12.853Z,993.08
2022-10-21T00:11:14.090Z,993.07
2022-10-21T00:12:13.375Z,993.04
2022-10-21T00:13:13.327Z,992.98
2022-10-21T00:14:14.496Z,993.03
2022-10-21T00:15:13.360Z,992.98
2022-10-21T00:16:13.350Z,992.91
2022-10-21T00:17:13.353Z,992.96
2022-10-21T00:18:13.404Z,992.92
2022-10-21T00:19:13.281Z,992.92
2022-10-21T00:20:13.396Z,992.86
2022-10-21T00:21:14.568Z,992.90
2022-10-21T00:22:13.380Z,992.87
2022-10-21T00:23:13.308Z,992.77
2022-10-21T00:24:13.444Z,992.82
2022-10-21T00:25:13.571Z,992.79
2022-10-21T00:26:13.660Z,992.72
2022-10-21T00:27:13.610Z,992.72
2022-10-21T00:28:13.560Z,992.68
2022-10-21T00:29:13.604Z,992.66
2022-10-21T00:30:13.652Z,992.62
2022-10-21T00:31:13.548Z,992.60
2022-10-21T00:32:13.532Z,992.57
2022-10-21T00:33:13.465Z,992.60
2022-10-21T00:34:13.398Z,992.63
2022-10-21T00:35:13.318Z,992.65
2022-10-21T00:36:13.161Z,992.63
2022-10-21T00:37:13.416Z,992.60
2022-10-21T00:38:13.331Z,992.59
2022-10-21T00:39:13.213Z,992.56
2022-10-21T00:40:13.098Z,992.54
2022-10-21T00:41:18.165Z,992.51
2022-10-21T00:42:18.040Z,992.53
2022-10-21T00:43:13.070Z,992.49
2022-10-21T00:44:13.389Z,992.48
2022-10-21T00:45:13.313Z,992.50
2022-10-21T00:46:13.460Z,992.52
2022-10-21T00:47:13.666Z,992.52
2022-10-21T00:48:13.978Z,992.51
2022-10-21T00:49:12.861Z,992.55
2022-10-21T00:50:13.938Z,992.50
2022-10-21T00:51:13.275Z,992.51
2022-10-21T00:52:13.234Z,992.50
2022-10-21T00:53:13.340Z,992.53
2022-10-21T00:54:13.260Z,992.60
2022-10-21T00:55:13.091Z,992.65
2022-10-21T00:56:15.586Z,992.63
2022-10-21T00:57:13.409Z,992.62
2022-10-21T00:58:13.358Z,992.60
2022-10-21T00:59:13.536Z,992.58
2022-10-21T01:00:13.655Z,992.59
2022-10-21T01:01:17.816Z,992.60
2022-10-21T01:02:13.630Z,992.66
2022-10-21T01:03:13.536Z,992.65
2022-10-21T01:04:13.583Z,992.60
2022-10-21T01:05:14.953Z,992.55
2022-10-21T01:06:12.897Z,992.52
2022-10-21T01:07:12.724Z,992.51
2022-10-21T01:08:13.574Z,992.51
2022-10-21T01:09:13.515Z,992.52
2022-10-21T01:10:14.822Z,992.53
2022-10-21T01:11:13.873Z,992.50
2022-10-21T01:12:14.003Z,992.52
2022-10-21T01:13:12.851Z,992.52
2022-10-21T01:14:13.813Z,992.57
2022-10-21T01:15:14.013Z,992.59
2022-10-21T01:16:13.068Z,992.54
2022-10-21T01:17:26.446Z,992.54
2022-10-21T01:18:13.197Z,992.54
2022-10-21T01:19:13.090Z,992.56
2022-10-21T01:20:13.108Z,992.51
2022-10-21T01:21:13.119Z,992.55
2022-10-21T01:22:13.366Z,992.57
2022-10-21T01:23:18.375Z,992.59
2022-10-21T01:24:13.831Z,992.57
2022-10-21T01:25:13.779Z,992.51
2022-10-21T01:26:13.737Z,992.50
2022-10-21T01:27:13.551Z,992.48
2022-10-21T01:28:13.401Z,992.51
2022-10-21T01:29:13.317Z,992.46
2022-10-21T01:30:13.400Z,992.47
2022-10-21T01:31:13.314Z,992.45
2022-10-21T01:32:13.307Z,992.42
2022-10-21T01:33:13.351Z,992.38
2022-10-21T01:34:13.508Z,992.34
2022-10-21T01:35:13.389Z,992.34
2022-10-21T01:36:13.363Z,992.29
2022-10-21T01:37:13.379Z,992.26
2022-10-21T01:38:13.290Z,992.28
2022-10-21T01:39:13.362Z,992.21
2022-10-21T01:40:13.640Z,992.21
2022-10-21T01:41:13.802Z,992.20
2022-10-21T01:42:14.185Z,992.19
2022-10-21T01:43:12.999Z,992.13
2022-10-21T01:44:12.940Z,992.10
2022-10-21T01:45:12.880Z,992.12
2022-10-21T01:46:12.821Z,992.10
2022-10-21T01:47:13.663Z,992.07
2022-10-21T01:48:13.637Z,992.03
2022-10-21T01:49:13.732Z,992.05
2022-10-21T01:50:13.773Z,992.07
2022-10-21T01:51:13.990Z,992.02
2022-10-21T01:52:14.122Z,992.01
2022-10-21T01:53:13.102Z,991.93
2022-10-21T01:54:13.270Z,991.91
2022-10-21T01:55:13.272Z,991.91
2022-10-21T01:56:13.191Z,991.88
2022-10-21T01:57:13.197Z,991.87
2022-10-21T01:58:13.405Z,991.87
2022-10-21T01:59:13.361Z,991.82
2022-10-21T02:00:13.525Z,991.81
2022-10-21T02:01:13.695Z,991.80
2022-10-21T02:02:13.964Z,991.83
2022-10-21T02:03:12.869Z,991.82
2022-10-21T02:04:13.952Z,991.81
2022-10-21T02:05:12.977Z,991.79
2022-10-21T02:06:13.008Z,991.76
2022-10-21T02:07:12.923Z,991.69
2022-10-21T02:08:12.832Z,991.71
2022-10-21T02:09:13.883Z,991.67
2022-10-21T02:10:13.123Z,991.64
2022-10-21T02:11:13.541Z,991.66
2022-10-21T02:12:13.445Z,991.65
2022-10-21T02:13:13.568Z,991.63
2022-10-21T02:14:13.576Z,991.71
2022-10-21T02:15:13.552Z,991.69
2022-10-21T02:16:13.573Z,991.67
2022-10-21T02:17:13.481Z,991.66
2022-10-21T02:18:13.394Z,991.61
2022-10-21T02:19:13.410Z,991.63
2022-10-21T02:20:13.319Z,991.60
2022-10-21T02:21:13.258Z,991.65
2022-10-21T02:22:13.690Z,991.65
2022-10-21T02:23:13.922Z,991.60
2022-10-21T02:24:12.941Z,991.60
2022-10-21T02:25:12.952Z,991.64
2022-10-21T02:26:13.408Z,991.59
2022-10-21T02:27:13.736Z,991.57
2022-10-21T02:28:13.869Z,991.52
2022-10-21T02:29:13.881Z,991.48
2022-10-21T02:30:13.788Z,991.47
2022-10-21T02:31:13.677Z,991.46
2022-10-21T02:32:13.786Z,991.41
2022-10-21T02:33:13.844Z,991.37
2022-10-21T02:34:13.871Z,991.37
2022-10-21T02:35:13.927Z,991.39
2022-10-21T02:36:13.219Z,991.37
2022-10-21T02:37:13.248Z,991.37
2022-10-21T02:38:13.337Z,991.39
2022-10-21T02:39:13.506Z,991.37
2022-10-21T02:40:13.414Z,991.38
2022-10-21T02:41:13.719Z,991.29
2022-10-21T02:42:14.017Z,991.31
2022-10-21T02:43:12.919Z,991.31
2022-10-21T02:44:13.330Z,991.30
2022-10-21T02:45:13.278Z,991.31
2022-10-21T02:46:13.143Z,991.31
2022-10-21T02:47:13.410Z,991.31
2022-10-21T02:48:13.234Z,991.29
2022-10-21T02:49:13.259Z,991.31
2022-10-21T02:50:13.212Z,991.30
2022-10-21T02:51:13.094Z,991.28
2022-10-21T02:52:13.351Z,991.37
2022-10-21T02:53:13.516Z,991.33
2022-10-21T02:54:13.926Z,991.33
2022-10-21T02:55:12.734Z,991.29
2022-10-21T02:56:13.611Z,991.29
2022-10-21T02:57:13.919Z,991.23
2022-10-21T02:58:12.945Z,991.26
2022-10-21T02:59:12.952Z,991.32
2022-10-21T03:00:12.802Z,991.27
2022-10-21T03:01:13.792Z,991.24
2022-10-21T03:02:13.911Z,991.28
2022-10-21T03:03:12.931Z,991.30
2022-10-21T03:04:13.045Z,991.29
2022-10-21T03:05:13.013Z,991.31
2022-10-21T03:06:12.989Z,991.31
2022-10-21T03:07:13.104Z,991.30
2022-10-21T03:08:13.349Z,991.29
2022-10-21T03:09:13.513Z,991.29
2022-10-21T03:10:13.801Z,991.27
2022-10-21T03:11:13.655Z,991.31
2022-10-21T03:12:13.525Z,991.34
2022-10-21T03:13:13.433Z,991.38
2022-10-21T03:14:13.420Z,991.34
2022-10-21T03:15:13.613Z,991.39
2022-10-21T03:16:13.607Z,991.39
2022-10-21T03:17:13.579Z,991.37
2022-10-21T03:18:13.467Z,991.40
2022-10-21T03:19:13.760Z,991.46
2022-10-21T03:20:13.661Z,991.47
2022-10-21T03:21:13.794Z,991.49
2022-10-21T03:22:13.599Z,991.48
2022-10-21T03:23:13.531Z,991.49
2022-10-21T03:24:19.781Z,991.47
2022-10-21T03:25:13.865Z,991.49
2022-10-21T03:26:13.694Z,991.48
2022-10-21T03:27:13.729Z,991.41
2022-10-21T03:28:13.640Z,991.42
2022-10-21T03:29:13.608Z,991.41
2022-10-21T03:30:13.561Z,991.37
2022-10-21T03:31:13.712Z,991.34
2022-10-21T03:32:13.598Z,991.34
2022-10-21T03:33:13.950Z,991.32
2022-10-21T03:34:12.829Z,991.29
2022-10-21T03:35:14.047Z,991.30
2022-10-21T03:36:13.567Z,991.26
2022-10-21T03:37:13.510Z,991.28
2022-10-21T03:38:13.331Z,991.26
2022-10-21T03:39:13.455Z,991.20
2022-10-21T03:40:13.723Z,991.21
2022-10-21T03:41:14.191Z,991.22
2022-10-21T03:42:13.273Z,991.19
2022-10-21T03:43:13.474Z,991.19
2022-10-21T03:44:13.735Z,991.18
2022-10-21T03:45:13.646Z,991.16
2022-10-21T03:46:13.618Z,991.13
2022-10-21T03:47:13.708Z,991.13
2022-10-21T03:48:13.842Z,991.10
2022-10-21T03:49:20.041Z,991.11
2022-10-21T03:50:15.724Z,991.11
2022-10-21T03:51:13.370Z,991.12
2022-10-21T03:52:13.395Z,991.11
2022-10-21T03:53:24.380Z,991.10
2022-10-21T03:54:13.218Z,991.11
2022-10-21T03:55:13.163Z,991.11
2022-10-21T03:56:13.418Z,991.12
2022-10-21T03:57:13.501Z,991.11
2022-10-21T03:58:13.721Z,991.12
2022-10-21T03:59:13.627Z,991.12
2022-10-21T04:01:13.579Z,991.10
2022-10-21T04:02:14.038Z,991.08
2022-10-21T04:03:12.999Z,991.12
2022-10-21T04:04:14.273Z,991.12
2022-10-21T04:05:13.278Z,991.09
2022-10-21T04:06:13.577Z,991.12
2022-10-21T04:07:13.636Z,991.12
2022-10-21T04:08:13.784Z,991.13
2022-10-21T04:09:13.877Z,991.09
2022-10-21T04:10:13.111Z,991.07
2022-10-21T04:11:13.036Z,991.01
2022-10-21T04:12:12.906Z,991.07
2022-10-21T04:13:13.136Z,991.08
2022-10-21T04:14:15.318Z,991.07
2022-10-21T04:15:13.635Z,991.08
2022-10-21T04:16:13.621Z,991.08
2022-10-21T04:17:13.708Z,991.11
2022-10-21T04:18:13.877Z,991.05
2022-10-21T04:19:14.014Z,991.06
2022-10-21T04:20:12.824Z,991.05
2022-10-21T04:21:14.032Z,991.08
2022-10-21T04:22:57.918Z,991.01
2022-10-21T04:23:13.266Z,991.00
2022-10-21T04:24:13.263Z,991.01
2022-10-21T04:25:13.681Z,990.95
2022-10-21T04:26:14.325Z,991.02
2022-10-21T04:27:13.336Z,990.96
2022-10-21T04:28:13.886Z,991.00
2022-10-21T04:29:12.882Z,990.98
2022-10-21T04:30:12.747Z,990.99
2022-10-21T04:31:13.698Z,990.99
2022-10-21T04:32:13.697Z,990.96
2022-10-21T04:33:13.572Z,990.99
2022-10-21T04:34:13.409Z,990.99
2022-10-21T04:35:13.310Z,990.95
2022-10-21T04:36:13.298Z,991.03
2022-10-21T04:37:13.204Z,991.01
2022-10-21T04:38:13.079Z,991.05
2022-10-21T04:39:12.945Z,991.03
2022-10-21T04:40:12.951Z,991.04
2022-10-21T04:41:13.162Z,991.08
2022-10-21T04:42:13.125Z,991.10
2022-10-21T04:43:13.661Z,991.08
2022-10-21T04:44:13.964Z,991.03
2022-10-21T04:45:13.054Z,991.06
2022-10-21T04:46:12.877Z,991.13
2022-10-21T04:47:13.878Z,991.09
2022-10-21T04:48:13.715Z,991.11
2022-10-21T04:49:13.796Z,991.05
2022-10-21T04:50:13.758Z,991.06
2022-10-21T04:51:13.575Z,991.11
2022-10-21T04:52:13.498Z,991.09
2022-10-21T04:53:13.634Z,991.07
2022-10-21T04:54:13.623Z,991.10
2022-10-21T04:55:13.607Z,991.11
2022-10-21T04:56:13.751Z,991.09
2022-10-21T04:57:13.702Z,991.08
2022-10-21T04:58:16.154Z,991.15
2022-10-21T04:59:13.437Z,991.09
2022-10-21T05:00:13.447Z,991.14
2022-10-21T05:01:13.740Z,991.14
2022-10-21T05:02:13.608Z,991.12
2022-10-21T05:03:13.625Z,991.13
2022-10-21T05:04:13.543Z,991.13
2022-10-21T05:05:13.600Z,991.14
2022-10-21T05:06:13.823Z,991.11
2022-10-21T05:07:13.772Z,991.08
2022-10-21T05:08:14.045Z,991.08
2022-10-21T05:09:13.277Z,991.09
2022-10-21T05:10:13.367Z,991.03
2022-10-21T05:11:13.264Z,991.03
2022-10-21T05:12:13.149Z,991.03
2022-10-21T05:13:13.378Z,990.97
2022-10-21T05:14:14.331Z,991.02
2022-10-21T05:15:12.805Z,991.03
2022-10-21T05:16:13.725Z,991.04
2022-10-21T05:17:18.931Z,991.01
2022-10-21T05:18:13.090Z,991.01
2022-10-21T05:19:12.991Z,991.05
2022-10-21T05:20:13.019Z,991.04
2022-10-21T05:21:13.191Z,991.02
2022-10-21T05:22:13.864Z,991.01
2022-10-21T05:23:17.906Z,990.98
2022-10-21T05:24:13.266Z,990.91
2022-10-21T05:25:13.394Z,990.94
2022-10-21T05:26:13.518Z,990.97
2022-10-21T05:27:13.944Z,990.95
2022-10-21T05:28:13.318Z,990.96
2022-10-21T05:29:13.418Z,990.89
2022-10-21T05:30:13.621Z,990.83
2022-10-21T05:31:13.576Z,990.86
2022-10-21T05:32:13.620Z,990.83
2022-10-21T05:33:13.526Z,990.81
2022-10-21T05:34:13.728Z,990.79
2022-10-21T05:35:13.718Z,990.77
2022-10-21T05:36:14.033Z,990.79
2022-10-21T05:37:13.045Z,990.83
2022-10-21T05:38:33.211Z,990.84
2022-10-21T05:39:13.459Z,990.83
2022-10-21T05:40:13.509Z,990.82
2022-10-21T05:41:13.847Z,990.82
2022-10-21T05:42:13.800Z,990.76
2022-10-21T05:43:13.846Z,990.80
2022-10-21T05:44:13.099Z,990.79
2022-10-21T05:46:00.170Z,990.79
2022-10-21T05:46:12.358Z,990.77
2022-10-21T05:47:13.438Z,990.77
2022-10-21T05:48:17.799Z,990.79
2022-10-21T05:49:13.244Z,990.80
2022-10-21T05:50:13.417Z,990.76
2022-10-21T05:51:13.504Z,990.75
2022-10-21T05:52:13.672Z,990.79
2022-10-21T05:53:13.540Z,990.71
2022-10-21T05:54:13.478Z,990.73
2022-10-21T05:55:13.813Z,990.76
2022-10-21T05:56:12.961Z,990.78
2022-10-21T05:57:13.035Z,990.77
2022-10-21T05:58:12.979Z,990.74
2022-10-21T05:59:12.948Z,990.76
2022-10-21T06:00:13.048Z,990.75
2022-10-21T06:01:13.074Z,990.76
2022-10-21T06:02:13.354Z,990.76
2022-10-21T06:03:13.442Z,990.74
2022-10-21T06:04:13.456Z,990.75
2022-10-21T06:05:13.404Z,990.72
2022-10-21T06:06:13.491Z,990.73
2022-10-21T06:07:13.612Z,990.67
2022-10-21T06:08:13.701Z,990.68
2022-10-21T06:09:13.816Z,990.66
2022-10-21T06:10:13.788Z,990.68
2022-10-21T06:11:13.881Z,990.67
2022-10-21T06:12:14.021Z,990.73
2022-10-21T06:13:13.038Z,990.71
2022-10-21T06:14:13.407Z,990.68
2022-10-21T06:15:13.348Z,990.71
2022-10-21T06:16:13.304Z,990.67
2022-10-21T06:17:13.605Z,990.68
2022-10-21T06:18:13.922Z,990.61
2022-10-21T06:19:12.981Z,990.62
2022-10-21T06:20:12.898Z,990.60
2022-10-21T06:21:13.329Z,990.60
2022-10-21T06:22:13.848Z,990.55
2022-10-21T06:23:14.090Z,990.49
2022-10-21T06:24:13.308Z,990.53
2022-10-21T06:25:13.528Z,990.53
2022-10-21T06:26:13.844Z,990.55
2022-10-21T06:27:14.788Z,990.53
2022-10-21T06:28:13.976Z,990.57
2022-10-21T06:29:13.039Z,990.56
2022-10-21T06:30:12.900Z,990.52
2022-10-21T06:31:13.015Z,990.56
2022-10-21T06:32:13.530Z,990.60
2022-10-21T06:33:13.498Z,990.61
2022-10-21T06:34:13.622Z,990.61
2022-10-21T06:35:13.704Z,990.64
2022-10-21T06:36:13.656Z,990.70
2022-10-21T06:37:13.969Z,990.70
2022-10-21T06:38:12.894Z,990.66
2022-10-21T06:39:13.845Z,990.68
2022-10-21T06:40:13.716Z,990.68
2022-10-21T06:41:13.957Z,990.71
2022-10-21T06:42:13.560Z,990.73
2022-10-21T06:43:18.864Z,990.76
2022-10-21T06:44:13.003Z,990.70
2022-10-21T06:45:12.908Z,990.70
2022-10-21T06:46:12.839Z,990.67
2022-10-21T06:47:13.951Z,990.66
2022-10-21T06:48:12.867Z,990.61
2022-10-21T06:49:14.221Z,990.59
2022-10-21T06:50:13.198Z,990.60
2022-10-21T06:51:13.349Z,990.60
2022-10-21T06:52:13.401Z,990.70
2022-10-21T06:53:13.454Z,990.71
2022-10-21T06:54:13.443Z,990.75
2022-10-21T06:55:13.549Z,990.77
2022-10-21T06:56:13.541Z,990.78
2022-10-21T06:57:13.581Z,990.80
2022-10-21T06:58:13.616Z,990.83
2022-10-21T06:59:13.702Z,990.84
2022-10-21T07:00:13.815Z,990.84
2022-10-21T07:01:27.440Z,990.82
2022-10-21T07:02:12.965Z,990.79
2022-10-21T07:03:13.017Z,990.76
2022-10-21T07:04:12.995Z,990.70
2022-10-21T07:05:12.880Z,990.69
2022-10-21T07:06:19.372Z,990.72
2022-10-21T07:07:13.343Z,990.74
2022-10-21T07:08:13.408Z,990.75
2022-10-21T07:09:13.691Z,990.84
2022-10-21T07:10:13.593Z,990.86
2022-10-21T07:11:13.714Z,990.87
2022-10-21T07:12:13.743Z,990.89
2022-10-21T07:13:14.411Z,990.89
2022-10-21T07:14:13.810Z,990.85
2022-10-21T07:15:13.613Z,990.90
2022-10-21T07:16:13.887Z,990.87
2022-10-21T07:17:14.313Z,990.89
2022-10-21T07:18:13.417Z,990.87
2022-10-21T07:19:13.774Z,990.90
2022-10-21T07:20:13.868Z,990.94
2022-10-21T07:21:13.696Z,990.91
2022-10-21T07:22:13.601Z,990.91
2022-10-21T07:23:13.476Z,990.92
2022-10-21T07:24:13.377Z,990.91
2022-10-21T07:25:13.368Z,990.96
2022-10-21T07:26:13.460Z,990.94
2022-10-21T07:27:13.438Z,990.95
2022-10-21T07:28:13.350Z,990.91
2022-10-21T07:29:13.610Z,990.89
2022-10-21T07:30:13.599Z,990.93
2022-10-21T07:31:13.565Z,990.94
2022-10-21T07:32:13.389Z,990.95
2022-10-21T07:33:13.328Z,991.01
2022-10-21T07:34:13.543Z,990.96
2022-10-21T07:35:13.403Z,990.94
2022-10-21T07:36:13.304Z,990.94
2022-10-21T07:37:13.200Z,990.95
2022-10-21T07:38:13.228Z,990.98
2022-10-21T07:39:13.342Z,990.97
2022-10-21T07:40:13.496Z,991.05
2022-10-21T07:41:13.947Z,991.07
2022-10-21T07:42:12.834Z,991.05
2022-10-21T07:44:14.153Z,991.12
2022-10-21T07:45:13.143Z,991.07
2022-10-21T07:46:13.217Z,991.10
2022-10-21T07:47:13.246Z,991.09
2022-10-21T07:48:13.559Z,991.14
2022-10-21T07:49:13.599Z,991.14
2022-10-21T07:50:13.496Z,991.12
2022-10-21T07:51:13.424Z,991.16
2022-10-21T07:53:14.143Z,991.16
2022-10-21T07:54:13.512Z,991.17
2022-10-21T07:55:13.509Z,991.17
2022-10-21T07:56:13.631Z,991.19
2022-10-21T07:57:14.092Z,991.18
2022-10-21T07:58:13.154Z,991.19
2022-10-21T07:59:13.520Z,991.18
2022-10-21T08:00:13.491Z,991.16
2022-10-21T08:01:13.457Z,991.14
2022-10-21T08:02:13.422Z,991.21
2022-10-21T08:03:13.350Z,991.21
2022-10-21T08:04:13.282Z,991.28
2022-10-21T08:05:13.268Z,991.31
2022-10-21T08:06:13.380Z,991.33
2022-10-21T08:07:14.056Z,991.39
2022-10-21T08:08:13.059Z,991.40
2022-10-21T08:09:13.245Z,991.47
2022-10-21T08:10:13.459Z,991.46
2022-10-21T08:11:13.679Z,991.51
2022-10-21T08:12:15.330Z,991.48
2022-10-21T08:13:13.466Z,991.44
2022-10-21T08:14:13.920Z,991.45
2022-10-21T08:15:12.829Z,991.48
2022-10-21T08:16:14.055Z,991.41
2022-10-21T08:17:13.003Z,991.44
2022-10-21T08:18:13.062Z,991.40
2022-10-21T08:19:13.109Z,991.39
2022-10-21T08:20:13.228Z,991.37
2022-10-21T08:21:13.107Z,991.36
2022-10-21T08:22:13.088Z,991.36
2022-10-21T08:23:13.154Z,991.37
2022-10-21T08:24:13.321Z,991.31
2022-10-21T08:25:13.272Z,991.30
2022-10-21T08:26:13.271Z,991.28
2022-10-21T08:27:13.221Z,991.28
2022-10-21T08:28:13.435Z,991.31
2022-10-21T08:29:13.433Z,991.36
2022-10-21T08:30:13.461Z,991.35
2022-10-21T08:31:13.430Z,991.37
2022-10-21T08:32:13.774Z,991.37
2022-10-21T08:33:13.713Z,991.36
2022-10-21T08:34:13.571Z,991.33
2022-10-21T08:35:13.493Z,991.34
2022-10-21T08:36:14.119Z,991.36
2022-10-21T08:37:13.788Z,991.39
2022-10-21T08:38:13.936Z,991.36
2022-10-21T08:39:13.037Z,991.37
2022-10-21T08:40:13.193Z,991.36
2022-10-21T08:41:13.254Z,991.35
2022-10-21T08:42:13.532Z,991.35
2022-10-21T08:43:13.825Z,991.37
2022-10-21T08:44:14.129Z,991.33
2022-10-21T08:45:14.116Z,991.40
2022-10-21T08:46:13.188Z,991.43
2022-10-21T08:47:13.379Z,991.47
2022-10-21T08:48:13.492Z,991.46
2022-10-21T08:49:16.057Z,991.46
2022-10-21T08:50:18.253Z,991.45
2022-10-21T08:51:14.359Z,991.46
2022-10-21T08:52:14.957Z,991.51
2022-10-21T08:53:13.142Z,991.51
2022-10-21T08:54:13.059Z,991.54
2022-10-21T08:55:13.310Z,991.55
2022-10-21T08:56:17.172Z,991.56
2022-10-21T08:57:13.674Z,991.56
2022-10-21T08:58:16.154Z,991.55
2022-10-21T08:59:13.691Z,991.52
2022-10-21T09:00:13.617Z,991.53
2022-10-21T09:01:13.705Z,991.53
2022-10-21T09:02:13.598Z,991.56
2022-10-21T09:03:13.680Z,991.57
2022-10-21T09:04:13.975Z,991.57
2022-10-21T09:05:12.923Z,991.55
2022-10-21T09:06:13.048Z,991.54
2022-10-21T09:07:13.294Z,991.54
2022-10-21T09:08:13.572Z,991.54
2022-10-21T09:09:13.775Z,991.53
2022-10-21T09:10:13.722Z,991.56
2022-10-21T09:11:13.667Z,991.52
2022-10-21T09:12:13.515Z,991.60
2022-10-21T09:13:13.559Z,991.56
2022-10-21T09:14:14.755Z,991.61
2022-10-21T09:15:13.854Z,991.58
2022-10-21T09:16:13.761Z,991.58
2022-10-21T09:17:13.123Z,991.62
2022-10-21T09:18:13.077Z,991.61
2022-10-21T09:19:13.295Z,991.64
2022-10-21T09:20:13.139Z,991.64
2022-10-21T09:21:13.425Z,991.68
2022-10-21T09:23:13.241Z,991.67
2022-10-21T09:24:13.170Z,991.75
2022-10-21T09:25:13.408Z,991.76
2022-10-21T09:26:14.074Z,991.82
2022-10-21T09:27:13.261Z,991.85
2022-10-21T09:28:13.234Z,991.90
2022-10-21T09:29:13.563Z,991.93
2022-10-21T09:30:13.947Z,991.91
2022-10-21T09:31:13.373Z,991.84
2022-10-21T09:32:13.863Z,991.80
2022-10-21T09:33:14.397Z,991.81
2022-10-21T09:34:18.790Z,991.78
2022-10-21T09:35:27.591Z,991.82
2022-10-21T09:36:13.925Z,991.89
2022-10-21T09:37:35.370Z,991.89
2022-10-21T09:38:14.044Z,991.88
2022-10-21T09:39:13.492Z,991.91
2022-10-21T09:40:19.351Z,991.92
2022-10-21T12:17:38.574Z,992.14
2022-10-21T12:18:13.723Z,992.09
2022-10-21T12:19:13.621Z,992.10
2022-10-21T12:20:13.773Z,992.10
2022-10-21T12:21:13.599Z,992.10
2022-10-21T12:22:13.464Z,992.10
2022-10-21T12:23:13.455Z,992.06
2022-10-21T12:24:13.411Z,992.08
2022-10-21T12:25:13.590Z,992.12
2022-10-21T12:26:13.960Z,992.14
2022-10-21T12:27:13.129Z,992.15
2022-10-21T12:28:13.281Z,992.16
2022-10-21T12:29:13.139Z,992.21
2022-10-21T12:30:13.253Z,992.16
2022-10-21T12:31:13.309Z,992.18
2022-10-21T12:32:13.487Z,992.15
2022-10-21T12:33:13.487Z,992.18
2022-10-21T12:34:13.457Z,992.15
2022-10-21T12:35:13.446Z,992.15
2022-10-21T12:36:13.771Z,992.13
2022-10-21T12:37:13.754Z,992.09
2022-10-21T12:38:13.612Z,992.08
2022-10-21T12:39:13.621Z,992.09
2022-10-21T12:40:13.569Z,992.14
2022-10-21T12:41:13.509Z,992.07
2022-10-21T12:42:13.875Z,992.07
2022-10-21T12:43:13.993Z,992.11
2022-10-21T12:44:12.868Z,992.13
2022-10-21T12:45:13.757Z,992.14
2022-10-21T12:46:13.759Z,992.12
2022-10-21T12:47:13.729Z,992.15
2022-10-21T12:48:13.804Z,992.07
2022-10-21T12:49:13.804Z,992.08
2022-10-21T12:50:14.249Z,992.03
2022-10-21T12:51:13.164Z,992.05
2022-10-21T12:52:13.095Z,992.05
2022-10-21T12:53:13.182Z,992.03
2022-10-21T12:54:13.369Z,992.08
2022-10-21T12:55:13.467Z,992.10
2022-10-21T12:56:13.753Z,992.13
2022-10-21T12:57:13.678Z,992.10
2022-10-21T12:58:12.985Z,992.07
2022-10-21T12:59:13.138Z,992.05
2022-10-21T13:00:13.166Z,992.05
2022-10-21T13:01:13.049Z,992.06
2022-10-21T13:02:12.871Z,992.04
2022-10-21T13:03:13.818Z,992.02
2022-10-21T13:04:13.858Z,991.99
2022-10-21T13:05:13.805Z,992.03
2022-10-21T13:06:13.762Z,992.00
2022-10-21T13:07:13.735Z,992.02
2022-10-21T13:08:13.847Z,992.02
2022-10-21T13:09:13.833Z,991.98
2022-10-21T13:10:13.917Z,991.97
2022-10-21T13:11:13.327Z,991.98
2022-10-21T13:12:13.296Z,991.98
2022-10-21T13:13:13.197Z,992.01
2022-10-21T13:14:13.278Z,992.00
2022-10-21T13:15:13.389Z,992.00
2022-10-21T13:16:13.360Z,991.96
2022-10-21T13:17:13.399Z,992.00
2022-10-21T13:18:13.693Z,991.91
2022-10-21T13:19:14.209Z,991.93
2022-10-21T13:20:13.110Z,991.91
2022-10-21T13:21:13.223Z,991.92
2022-10-21T13:22:13.242Z,991.94
2022-10-21T13:23:13.160Z,991.90
2022-10-21T13:24:13.237Z,991.88
2022-10-21T13:25:13.316Z,991.88
2022-10-21T13:26:13.254Z,991.92
2022-10-21T13:27:13.734Z,991.94
2022-10-21T13:28:14.010Z,991.93
2022-10-21T13:29:16.200Z,991.99
2022-10-21T13:30:13.696Z,991.99
2022-10-21T13:31:13.725Z,991.98
2022-10-21T13:32:13.734Z,992.01
2022-10-21T13:33:13.025Z,991.97
2022-10-21T13:34:12.992Z,991.97
2022-10-21T13:35:12.972Z,991.97
2022-10-21T13:36:13.170Z,991.97
2022-10-21T13:37:13.095Z,992.00
2022-10-21T13:38:13.014Z,991.97
2022-10-21T13:39:13.442Z,992.01
2022-10-21T13:40:13.580Z,992.01
2022-10-21T13:41:13.915Z,992.01
2022-10-21T13:42:16.710Z,991.96
2022-10-21T13:43:13.371Z,992.00
2022-10-21T13:44:13.374Z,991.99
2022-10-21T13:45:13.519Z,992.02
2022-10-21T13:46:13.416Z,992.04
2022-10-21T13:47:13.430Z,991.99
2022-10-21T13:48:13.291Z,991.95
2022-10-21T13:49:13.229Z,991.98
2022-10-21T13:50:13.188Z,992.01
2022-10-21T13:51:13.424Z,992.02
2022-10-21T13:52:18.545Z,991.99
2022-10-21T13:53:13.622Z,991.98
2022-10-21T13:54:13.595Z,991.98
2022-10-21T13:55:18.866Z,992.00
2022-10-21T13:56:13.869Z,992.00
2022-10-21T13:57:15.641Z,992.00
2022-10-21T13:58:14.153Z,992.00
2022-10-21T13:59:13.423Z,992.00
2022-10-21T14:00:13.598Z,992.04
2022-10-21T14:01:18.736Z,991.99
2022-10-21T14:02:13.902Z,991.99
2022-10-21T14:03:13.097Z,991.94
2022-10-21T14:04:13.027Z,991.99
2022-10-21T14:05:13.770Z,991.97
2022-10-21T14:06:13.861Z,991.98
2022-10-21T14:07:14.482Z,991.98
2022-10-21T14:08:13.592Z,992.00
2022-10-21T14:09:13.525Z,991.96
2022-10-21T14:10:13.495Z,991.97
2022-10-21T14:11:13.551Z,991.93
2022-10-21T14:12:13.924Z,991.95
2022-10-21T14:13:12.882Z,991.92
2022-10-21T14:14:12.799Z,991.90
2022-10-21T14:15:13.872Z,991.95
2022-10-21T14:16:13.842Z,991.92
2022-10-21T14:17:13.786Z,991.95
2022-10-21T14:18:13.915Z,991.94
2022-10-21T14:19:13.004Z,991.93
2022-10-21T14:20:12.800Z,991.93
2022-10-21T14:21:13.906Z,991.95
2022-10-21T14:22:12.834Z,991.97
2022-10-21T14:23:13.857Z,991.92
2022-10-21T14:24:13.455Z,991.93
2022-10-21T14:25:13.455Z,991.95
2022-10-21T14:26:13.691Z,991.95
2022-10-21T14:27:13.675Z,991.95
2022-10-21T14:28:13.807Z,991.93
2022-10-21T14:29:13.994Z,991.98
2022-10-21T14:30:13.254Z,992.02
2022-10-21T14:31:13.167Z,992.01
2022-10-21T14:32:13.329Z,992.01
2022-10-21T14:33:13.327Z,992.07
2022-10-21T14:34:37.556Z,992.03
2022-10-21T14:35:13.608Z,992.01
2022-10-21T14:36:13.898Z,991.99
2022-10-21T14:37:12.979Z,991.97
2022-10-21T14:38:18.449Z,991.97
2022-10-21T14:39:13.483Z,991.97
2022-10-21T14:40:13.551Z,991.97
2022-10-21T14:41:13.666Z,991.99
2022-10-21T14:42:13.753Z,992.01
2022-10-21T14:43:13.729Z,991.97
2022-10-21T14:44:13.707Z,991.98
2022-10-21T14:45:13.842Z,992.01
2022-10-21T14:46:19.122Z,991.96
2022-10-21T14:47:18.460Z,992.00
2022-10-21T14:48:14.393Z,991.99
2022-10-21T14:49:18.502Z,992.00
2022-10-21T14:50:18.708Z,991.97
2022-10-21T14:51:17.717Z,991.99
2022-10-21T14:52:13.845Z,992.00
2022-10-21T14:53:13.878Z,991.98
2022-10-21T14:54:13.922Z,991.99
2022-10-21T14:55:12.870Z,991.94
2022-10-21T14:56:13.987Z,991.97
2022-10-21T14:57:13.222Z,991.89
2022-10-21T14:58:13.947Z,991.97
2022-10-21T14:59:18.443Z,991.91
2022-10-21T15:00:13.541Z,991.92
2022-10-21T15:01:13.868Z,991.93
2022-10-21T15:02:14.230Z,991.92
2022-10-21T15:03:13.408Z,991.91
2022-10-21T15:04:13.735Z,991.96
2022-10-21T15:05:13.725Z,991.93
2022-10-21T15:06:13.679Z,991.91
2022-10-21T15:07:13.667Z,991.92
2022-10-21T15:08:13.680Z,991.88